TimeEST,TemperatureF,Dew PointF,Humidity,Sea Level PressureIn,VisibilityMPH,Wind Direction,Wind SpeedMPH,Gust SpeedMPH,PrecipitationIn,Events,Conditions,WindDirDegrees,DateUTC
12:15 AM,46.4,30.2,53,29.99,10.0,ESE,3.5,-,N/A,,Clear,120,2012-12-24 05:15:00
12:35 AM,44.6,30.2,57,29.99,10.0,ESE,5.8,-,N/A,,Clear,120,2012-12-24 05:35:00
12:55 AM,44.6,30.2,57,29.99,10.0,ESE,6.9,-,N/A,,Clear,120,2012-12-24 05:55:00
1:16 AM,44.6,30.2,57,29.99,10.0,ESE,4.6,-,N/A,,Clear,120,2012-12-24 06:16:00
1:35 AM,39.2,30.2,70,30.00,10.0,ESE,4.6,-,N/A,,Clear,120,2012-12-24 06:35:00
1:55 AM,39.2,30.2,70,30.00,10.0,ESE,5.8,-,N/A,,Clear,120,2012-12-24 06:55:00
2:15 AM,39.2,30.2,70,30.01,10.0,ESE,4.6,-,N/A,,Clear,120,2012-12-24 07:15:00
2:35 AM,37.4,30.2,75,30.02,10.0,ESE,3.5,-,N/A,,Clear,120,2012-12-24 07:35:00
2:55 AM,37.4,30.2,75,30.01,10.0,Calm,Calm,-,N/A,,Clear,0,2012-12-24 07:55:00
3:16 AM,35.6,30.2,81,30.01,10.0,Calm,Calm,-,N/A,,Clear,0,2012-12-24 08:16:00
3:35 AM,35.6,32.0,87,30.01,10.0,Calm,Calm,-,N/A,,Clear,0,2012-12-24 08:35:00
3:55 AM,35.6,30.2,81,30.01,10.0,Calm,Calm,-,N/A,,Clear,0,2012-12-24 08:55:00
4:15 AM,33.8,30.2,87,30.01,10.0,Calm,Calm,-,N/A,,Clear,0,2012-12-24 09:15:00
4:35 AM,33.8,30.2,87,30.02,10.0,Calm,Calm,-,N/A,,Clear,0,2012-12-24 09:35:00
4:55 AM,33.8,30.2,87,30.02,10.0,Calm,Calm,-,N/A,,Clear,0,2012-12-24 09:55:00
5:15 AM,33.8,30.2,87,30.02,10.0,Calm,Calm,-,N/A,,Clear,0,2012-12-24 10:15:00
5:35 AM,33.8,30.2,87,30.03,10.0,Calm,Calm,-,N/A,,Clear,0,2012-12-24 10:35:00
5:55 AM,33.8,30.2,87,30.04,10.0,ESE,3.5,-,N/A,,Clear,120,2012-12-24 10:55:00
6:15 AM,33.8,30.2,87,30.04,10.0,SE,5.8,-,N/A,,Clear,130,2012-12-24 11:15:00
6:35 AM,32.0,30.2,93,30.05,10.0,SE,4.6,-,N/A,,Clear,130,2012-12-24 11:35:00
6:55 AM,32.0,28.4,87,30.05,10.0,SE,4.6,-,N/A,,Clear,130,2012-12-24 11:55:00
7:15 AM,32.0,28.4,87,30.05,10.0,SE,4.6,-,N/A,,Clear,130,2012-12-24 12:15:00
7:35 AM,33.8,30.2,87,30.05,10.0,SE,4.6,-,N/A,,Clear,130,2012-12-24 12:35:00
7:55 AM,33.8,30.2,87,30.06,10.0,SE,5.8,-,N/A,,Clear,130,2012-12-24 12:55:00
8:15 AM,37.4,30.2,75,30.06,10.0,SE,5.8,-,N/A,,Clear,130,2012-12-24 13:15:00
8:35 AM,41.0,33.8,76,30.06,10.0,SE,5.8,-,N/A,,Clear,130,2012-12-24 13:35:00
8:55 AM,42.8,35.6,76,30.06,10.0,SE,4.6,-,N/A,,Scattered Clouds,130,2012-12-24 13:55:00
9:16 AM,44.6,35.6,71,30.07,10.0,SE,5.8,-,N/A,,Mostly Cloudy,140,2012-12-24 14:16:00
9:35 AM,46.4,37.4,71,30.07,10.0,SE,3.5,-,N/A,,Overcast,130,2012-12-24 14:35:00
9:55 AM,48.2,37.4,66,30.07,10.0,SE,5.8,-,N/A,,Overcast,140,2012-12-24 14:55:00
10:15 AM,48.2,37.4,66,30.06,10.0,SE,4.6,-,N/A,,Overcast,130,2012-12-24 15:15:00
10:35 AM,48.2,39.2,71,30.07,10.0,SE,4.6,-,N/A,,Overcast,130,2012-12-24 15:35:00
10:55 AM,48.2,39.2,71,30.06,10.0,SE,3.5,-,N/A,,Overcast,130,2012-12-24 15:55:00
11:15 AM,48.2,39.2,71,30.06,10.0,Calm,Calm,-,N/A,,Overcast,0,2012-12-24 16:15:00
11:35 AM,48.2,39.2,71,30.04,10.0,SE,5.8,-,N/A,,Light Drizzle,140,2012-12-24 16:35:00
11:55 AM,48.2,41.0,76,30.04,10.0,ESE,3.5,-,N/A,Rain,Light Rain,120,2012-12-24 16:55:00
12:15 PM,50.0,41.0,71,30.03,10.0,SE,5.8,-,N/A,,Scattered Clouds,130,2012-12-24 17:15:00
12:37 PM,50.0,41.0,71,30.02,10.0,Calm,Calm,-,N/A,,Scattered Clouds,0,2012-12-24 17:37:00
12:55 PM,50.0,42.8,76,30.01,10.0,SE,4.6,-,N/A,,Scattered Clouds,130,2012-12-24 17:55:00
1:15 PM,51.8,42.8,71,29.99,10.0,SE,5.8,-,N/A,,Scattered Clouds,130,2012-12-24 18:15:00
1:35 PM,51.8,42.8,71,29.99,10.0,SE,4.6,-,N/A,,Clear,130,2012-12-24 18:35:00
1:56 PM,51.8,42.8,71,29.99,10.0,SE,3.5,-,N/A,,Clear,130,2012-12-24 18:56:00
2:15 PM,50.0,42.8,76,29.99,10.0,SE,3.5,-,N/A,,Clear,130,2012-12-24 19:15:00
2:35 PM,50.0,42.8,76,29.99,10.0,SE,4.6,-,N/A,,Clear,130,2012-12-24 19:35:00
2:55 PM,48.2,42.8,82,29.96,10.0,SE,6.9,-,N/A,,Clear,140,2012-12-24 19:55:00
3:15 PM,48.2,41.0,76,29.97,10.0,SE,8.1,-,N/A,,Clear,140,2012-12-24 20:15:00
3:35 PM,48.2,41.0,76,29.95,10.0,SSE,9.2,-,N/A,,Clear,150,2012-12-24 20:35:00
3:55 PM,48.2,39.2,71,29.99,10.0,SE,6.9,-,N/A,,Scattered Clouds,140,2012-12-24 20:55:00
4:15 PM,48.2,39.2,71,29.99,10.0,SE,5.8,-,N/A,,Mostly Cloudy,130,2012-12-24 21:15:00
4:35 PM,46.4,41.0,81,29.97,10.0,SE,3.5,17.3,N/A,,Mostly Cloudy,130,2012-12-24 21:35:00
4:55 PM,46.4,41.0,81,29.95,10.0,SSE,11.5,-,N/A,,Overcast,160,2012-12-24 21:55:00
5:15 PM,48.2,42.8,82,29.93,10.0,SSE,10.4,-,N/A,,Overcast,160,2012-12-24 22:15:00
5:35 PM,48.2,42.8,82,29.93,10.0,SE,6.9,16.1,N/A,,Overcast,140,2012-12-24 22:35:00
5:55 PM,48.2,42.8,82,29.94,10.0,SE,5.8,-,N/A,,Overcast,130,2012-12-24 22:55:00
6:15 PM,48.2,42.8,82,29.93,10.0,SE,5.8,-,N/A,,Overcast,130,2012-12-24 23:15:00
6:35 PM,50.0,42.8,76,29.95,10.0,ESE,4.6,-,N/A,,Overcast,120,2012-12-24 23:35:00
6:55 PM,48.2,42.8,82,29.93,10.0,SE,4.6,-,N/A,,Overcast,130,2012-12-24 23:55:00
7:15 PM,50.0,42.8,76,29.93,10.0,ESE,3.5,-,N/A,,Overcast,120,2012-12-25 00:15:00
7:35 PM,50.0,42.8,76,29.93,10.0,ESE,5.8,-,N/A,,Overcast,120,2012-12-25 00:35:00
7:55 PM,50.0,42.8,76,29.93,10.0,ESE,8.1,-,N/A,Rain,Light Rain,110,2012-12-25 00:55:00
8:15 PM,50.0,42.8,76,29.93,10.0,ESE,4.6,-,N/A,,Overcast,120,2012-12-25 01:15:00
8:35 PM,50.0,42.8,76,29.92,10.0,ESE,8.1,-,N/A,,Overcast,110,2012-12-25 01:35:00
8:55 PM,51.8,42.8,71,29.91,10.0,ESE,6.9,-,N/A,,Overcast,110,2012-12-25 01:55:00
9:15 PM,51.8,42.8,71,29.91,10.0,ESE,5.8,-,N/A,,Overcast,110,2012-12-25 02:15:00
9:35 PM,51.8,42.8,71,29.91,10.0,ESE,6.9,-,N/A,,Overcast,110,2012-12-25 02:35:00
9:55 PM,51.8,42.8,71,29.91,10.0,East,9.2,-,N/A,,Overcast,100,2012-12-25 02:55:00
10:15 PM,51.8,42.8,71,29.91,10.0,ESE,8.1,-,N/A,,Overcast,110,2012-12-25 03:15:00
10:35 PM,51.8,42.8,71,29.91,10.0,ESE,5.8,-,N/A,,Overcast,110,2012-12-25 03:35:00
10:55 PM,51.8,42.8,71,29.91,10.0,ESE,6.9,-,N/A,,Overcast,120,2012-12-25 03:55:00
11:15 PM,51.8,42.8,71,29.90,10.0,ESE,4.6,-,N/A,,Overcast,120,2012-12-25 04:15:00
11:35 PM,51.8,42.8,71,29.90,10.0,ESE,5.8,-,N/A,,Overcast,120,2012-12-25 04:35:00
11:55 PM,53.6,41.0,62,29.90,10.0,ESE,9.2,-,N/A,,Overcast,110,2012-12-25 04:55:00